Sagar Sampada — VWXS — position and weather

sailwx.info

Track history (hours):
 
Tides and Currents Weather Stations Pressure Air Temp Water Temp Dewpoint Dewpoint Depression Visibility Wind Speed Wind Dir Waves Ship Positions

Oceanographic research ship Sagar Sampada (India)

Detailed information on ship capabilities available from University of Delaware's Ocean Information Center.

Last reported at 2019-Feb-20 03:03 UTC. Time now 2019-Feb-21 16:10 UTC.
Position N 10°00' E 076°18'.

Type: Other ship. MMSI: 419323000.

Wind from 100 at 2 knots

Barometer 1012.6 mb
Air temperature 28.8 ° C

Date/timePositionNaut miles runAvg speedWind from/ knotsBaromVisibWave heightAir tempDewpointWater temp
2019-Feb-20 03:03N 10°00' E 076°18'0 0.0 100 / 21012.6 28.8
2019-Feb-20 00:03N 10°00' E 076°18'0 0.0 040 / 21010.3 27.4
2019-Feb-19 21:03N 10°00' E 076°18'0 0.0 040 / 21010.6 28.0
2019-Feb-19 17:33N 10°00' E 076°18'0 0.0 050 / 21011.7 28.4
2019-Feb-19 15:03N 10°00' E 076°18'0 0.0 360 / 61010.2 28.9
2019-Feb-19 12:03N 10°00' E 076°18'0 0.0 320 / 101007.8 29.3
2019-Feb-19 09:03N 10°00' E 076°18'8 2.8 260 / 41008.4 29.5
2019-Feb-19 06:03N 09°54' E 076°12'0 0.0 330 / 101011.2 28.7
2019-Feb-19 03:03N 09°54' E 076°12'0 0.0 030 / 61010.3 27.7
2019-Feb-18 23:33N 09°54' E 076°12'0 0.0 050 / 61007.4 27.5
2019-Feb-18 21:03N 09°54' E 076°12'0 0.0 320 / 41007.9 27.7
2019-Feb-18 15:03N 09°54' E 076°12'0 0.0 350 / 101008.8 28.3
2019-Feb-18 12:03N 09°54' E 076°12'0 0.0 340 / 141006.6 29.1
2019-Feb-18 08:33N 09°54' E 076°12'0 0.0 320 / 141008.3 29.2
2019-Feb-18 06:03N 09°54' E 076°12'12 3.9 340 / 61011.3 29.3
2019-Feb-18 03:03N 09°54' E 076°00'12 4.0 260 / 81011.2 28.8
2019-Feb-18 00:03N 10°06' E 076°00'12 4.0 020 / 41008.7 28.1
2019-Feb-17 21:03N 10°18' E 076°00'19 6.3 070 / 81008.4 28.4
2019-Feb-17 18:03N 10°36' E 075°54'12 4.0 020 / 21010.2 28.6
2019-Feb-17 15:03N 10°48' E 075°54'19 6.3 120 / 21009.9 29.0
2019-Feb-17 12:03N 11°06' E 075°48'13 4.5 120 / 121008.2 29.5
2019-Feb-17 09:03N 11°18' E 075°42'17 5.6 300 / 81009.2 31.3
2019-Feb-17 06:03N 11°30' E 075°30'25 7.2 320 / 61013.1 30.6
2019-Feb-17 02:33N 11°48' E 075°12'21 8.6 300 / 121013.4 27.5
2019-Feb-17 00:03N 12°06' E 075°00'19 6.3 330 / 101011.3 27.1
2019-Feb-16 21:03N 12°24' E 074°54'30 9.9 320 / 171011.6 28.3
2019-Feb-16 18:03N 12°48' E 074°36'24 8.0 320 / 81012.6 28.4
2019-Feb-16 15:03N 13°12' E 074°36'25 8.2 350 / 61011.3 28.6
2019-Feb-16 12:03N 13°36' E 074°30'31 8.7 090 / 61009.3 29.2
2019-Feb-16 08:33N 14°06' E 074°24'19 7.6 040 / 121011.2 28.4
2019-Feb-16 06:03N 14°24' E 074°18'24 8.0 350 / 171014.5 27.1
2019-Feb-16 03:03N 14°30' E 073°54'27 8.9 290 / 161013.4 27.2
2019-Feb-16 00:03N 14°54' E 073°42'25 8.2 300 / 101010.8 26.8
2019-Feb-15 21:03N 15°18' E 073°36'25 8.2 310 / 81011.8 26.6
2019-Feb-15 18:03N 15°42' E 073°30'27 8.9 340 / 81013.6 26.0
2019-Feb-15 15:03N 16°06' E 073°18'25 8.3 320 / 81013.1 26.6
2019-Feb-15 12:03N 16°24' E 073°00'26 8.7 270 / 141011.5 27.5
2019-Feb-15 09:03N 16°36' E 072°36'104 8.7 280 / 141012.2 27.5
2019-Feb-14 21:03N 17°42' E 071°12'4 9.0 300 / 101012.1 25.6
2019-Feb-14 20:36N 17°45' E 071°09'11 8.7
2019-Feb-14 19:21N 17°51' E 070°60'1410.9
2019-Feb-14 18:03N 18°00' E 070°48'21 7.0 290 / 121013.6 25.4
2019-Feb-14 15:03N 18°12' E 070°30'25 8.3 290 / 171012.8 25.2
2019-Feb-14 12:03N 18°30' E 070°12'26 8.6 280 / 171011.5 25.2
2019-Feb-14 09:03N 18°42' E 069°48'29 9.7 290 / 171012.8 25.0
2019-Feb-14 06:03N 19°00' E 069°24'8 2.8 290 / 191015.2 24.8
2019-Feb-14 03:03N 19°06' E 069°18'0 0.0 090 / 161015.2 24.2
2019-Feb-14 00:03N 19°06' E 069°18'0 0.0 090 / 121013.2 23.8
2019-Feb-13 20:33N 19°06' E 069°18'19 7.5 080 / 121014.4 24.0
2019-Feb-13 18:03N 19°24' E 069°12'19 6.3 330 / 81016.2 23.9
2019-Feb-13 15:03N 19°42' E 069°06'19 6.3 340 / 101015.9 23.7
2019-Feb-13 12:03N 20°00' E 069°00'0 0.0 120 / 141014.7 24.4
2019-Feb-13 09:03N 20°00' E 069°00'0 0.0 030 / 141015.3 24.7
2019-Feb-13 06:03N 20°00' E 069°00'0 0.0 110 / 121017.7 24.1
2019-Feb-13 00:03N 20°00' E 069°00'0 0.0 080 / 141015.4 23.8
2019-Feb-12 21:03N 20°00' E 069°00'17 5.6 100 / 81015.8 23.9
2019-Feb-12 18:03N 20°00' E 068°42'28 9.4 290 / 121016.8 23.9
2019-Feb-12 15:03N 20°00' E 068°12'11 3.8 300 / 81015.6 23.8
2019-Feb-12 12:03N 20°00' E 068°00'0 0.0 040 / 101013.4 25.2
2019-Feb-12 09:03N 20°00' E 068°00'0 0.0 280 / 41013.8 24.8
2019-Feb-12 03:03N 20°00' E 068°00'0 0.0 110 / 81014.7 24.2
2019-Feb-12 00:03N 20°00' E 068°00'23 3.8 310 / 61012.5 23.9
2019-Feb-11 18:03N 20°00' E 067°36'23 7.5 310 / 191014.9 23.5
2019-Feb-11 15:03N 20°00' E 067°12'11 3.8 320 / 191014.6 23.8
2019-Feb-11 12:03N 20°00' E 067°00'0 0.0 320 / 191012.8 24.5
2019-Feb-11 09:03N 20°00' E 067°00'0 0.0 080 / 121013.9 24.4
2019-Feb-11 06:03N 20°00' E 067°00'0 0.0 100 / 141016.6 24.1
2019-Feb-11 02:33N 20°00' E 067°00'0 0.0 1016.1 23.2
2019-Feb-10 21:03N 20°00' E 067°00'17 5.6 260 / 161014.9 22.6
2019-Feb-10 18:03N 20°00' E 066°42'28 9.4 300 / 231016.0 22.6
2019-Feb-10 15:03N 20°00' E 066°12'11 3.8 310 / 191015.8 23.0
2019-Feb-10 12:03N 20°00' E 066°00'0 0.0 320 / 141014.4 23.5
2019-Feb-10 09:03N 20°00' E 066°00'6 1.9 080 / 101015.5 23.3
2019-Feb-10 06:03N 20°00' E 065°54'6 1.9 090 / 121018.5 23.0
2019-Feb-10 03:03N 20°00' E 066°00'   100 / 121017.2 22.2
Track history (hours):
 
Tides and Currents Weather Stations Pressure Air Temp Water Temp Dewpoint Dewpoint Depression Visibility Wind Speed Wind Dir Waves Ship Positions

Oceanographic research ship Sagar Sampada (India)

Detailed information on ship capabilities available from University of Delaware's Ocean Information Center.

Last reported at 2019-Feb-20 03:03 UTC. Time now 2019-Feb-21 16:10 UTC.
Position N 10°00' E 076°18'.

Type: Other ship. MMSI: 419323000.

Wind from 100 at 2 knots

Barometer 1012.6 mb
Air temperature 28.8 ° C

Date/timePositionNaut miles runAvg speedWind from/ knotsBaromVisibWave heightAir tempDewpointWater temp
2019-Feb-20 03:03N 10°00' E 076°18'0 0.0 100 / 21012.6 28.8
2019-Feb-20 00:03N 10°00' E 076°18'0 0.0 040 / 21010.3 27.4
2019-Feb-19 21:03N 10°00' E 076°18'0 0.0 040 / 21010.6 28.0
2019-Feb-19 17:33N 10°00' E 076°18'0 0.0 050 / 21011.7 28.4
2019-Feb-19 15:03N 10°00' E 076°18'0 0.0 360 / 61010.2 28.9
2019-Feb-19 12:03N 10°00' E 076°18'0 0.0 320 / 101007.8 29.3
2019-Feb-19 09:03N 10°00' E 076°18'8 2.8 260 / 41008.4 29.5
2019-Feb-19 06:03N 09°54' E 076°12'0 0.0 330 / 101011.2 28.7
2019-Feb-19 03:03N 09°54' E 076°12'0 0.0 030 / 61010.3 27.7
2019-Feb-18 23:33N 09°54' E 076°12'0 0.0 050 / 61007.4 27.5
2019-Feb-18 21:03N 09°54' E 076°12'0 0.0 320 / 41007.9 27.7
2019-Feb-18 15:03N 09°54' E 076°12'0 0.0 350 / 101008.8 28.3
2019-Feb-18 12:03N 09°54' E 076°12'0 0.0 340 / 141006.6 29.1
2019-Feb-18 08:33N 09°54' E 076°12'0 0.0 320 / 141008.3 29.2
2019-Feb-18 06:03N 09°54' E 076°12'12 3.9 340 / 61011.3 29.3
2019-Feb-18 03:03N 09°54' E 076°00'12 4.0 260 / 81011.2 28.8
2019-Feb-18 00:03N 10°06' E 076°00'12 4.0 020 / 41008.7 28.1
2019-Feb-17 21:03N 10°18' E 076°00'19 6.3 070 / 81008.4 28.4
2019-Feb-17 18:03N 10°36' E 075°54'12 4.0 020 / 21010.2 28.6
2019-Feb-17 15:03N 10°48' E 075°54'19 6.3 120 / 21009.9 29.0
2019-Feb-17 12:03N 11°06' E 075°48'13 4.5 120 / 121008.2 29.5
2019-Feb-17 09:03N 11°18' E 075°42'17 5.6 300 / 81009.2 31.3
2019-Feb-17 06:03N 11°30' E 075°30'25 7.2 320 / 61013.1 30.6
2019-Feb-17 02:33N 11°48' E 075°12'21 8.6 300 / 121013.4 27.5
2019-Feb-17 00:03N 12°06' E 075°00'19 6.3 330 / 101011.3 27.1
2019-Feb-16 21:03N 12°24' E 074°54'30 9.9 320 / 171011.6 28.3
2019-Feb-16 18:03N 12°48' E 074°36'24 8.0 320 / 81012.6 28.4
2019-Feb-16 15:03N 13°12' E 074°36'25 8.2 350 / 61011.3 28.6
2019-Feb-16 12:03N 13°36' E 074°30'31 8.7 090 / 61009.3 29.2
2019-Feb-16 08:33N 14°06' E 074°24'19 7.6 040 / 121011.2 28.4
2019-Feb-16 06:03N 14°24' E 074°18'24 8.0 350 / 171014.5 27.1
2019-Feb-16 03:03N 14°30' E 073°54'27 8.9 290 / 161013.4 27.2
2019-Feb-16 00:03N 14°54' E 073°42'25 8.2 300 / 101010.8 26.8
2019-Feb-15 21:03N 15°18' E 073°36'25 8.2 310 / 81011.8 26.6
2019-Feb-15 18:03N 15°42' E 073°30'27 8.9 340 / 81013.6 26.0
2019-Feb-15 15:03N 16°06' E 073°18'25 8.3 320 / 81013.1 26.6
2019-Feb-15 12:03N 16°24' E 073°00'26 8.7 270 / 141011.5 27.5
2019-Feb-15 09:03N 16°36' E 072°36'104 8.7 280 / 141012.2 27.5
2019-Feb-14 21:03N 17°42' E 071°12'4 9.0 300 / 101012.1 25.6
2019-Feb-14 20:36N 17°45' E 071°09'11 8.7
2019-Feb-14 19:21N 17°51' E 070°60'1410.9
2019-Feb-14 18:03N 18°00' E 070°48'21 7.0 290 / 121013.6 25.4
2019-Feb-14 15:03N 18°12' E 070°30'25 8.3 290 / 171012.8 25.2
2019-Feb-14 12:03N 18°30' E 070°12'26 8.6 280 / 171011.5 25.2
2019-Feb-14 09:03N 18°42' E 069°48'29 9.7 290 / 171012.8 25.0
2019-Feb-14 06:03N 19°00' E 069°24'8 2.8 290 / 191015.2 24.8
2019-Feb-14 03:03N 19°06' E 069°18'0 0.0 090 / 161015.2 24.2
2019-Feb-14 00:03N 19°06' E 069°18'0 0.0 090 / 121013.2 23.8
2019-Feb-13 20:33N 19°06' E 069°18'19 7.5 080 / 121014.4 24.0
2019-Feb-13 18:03N 19°24' E 069°12'19 6.3 330 / 81016.2 23.9
2019-Feb-13 15:03N 19°42' E 069°06'19 6.3 340 / 101015.9 23.7
2019-Feb-13 12:03N 20°00' E 069°00'0 0.0 120 / 141014.7 24.4
2019-Feb-13 09:03N 20°00' E 069°00'0 0.0 030 / 141015.3 24.7
2019-Feb-13 06:03N 20°00' E 069°00'0 0.0 110 / 121017.7 24.1
2019-Feb-13 00:03N 20°00' E 069°00'0 0.0 080 / 141015.4 23.8
2019-Feb-12 21:03N 20°00' E 069°00'17 5.6 100 / 81015.8 23.9
2019-Feb-12 18:03N 20°00' E 068°42'28 9.4 290 / 121016.8 23.9
2019-Feb-12 15:03N 20°00' E 068°12'11 3.8 300 / 81015.6 23.8
2019-Feb-12 12:03N 20°00' E 068°00'0 0.0 040 / 101013.4 25.2
2019-Feb-12 09:03N 20°00' E 068°00'0 0.0 280 / 41013.8 24.8
2019-Feb-12 03:03N 20°00' E 068°00'0 0.0 110 / 81014.7 24.2
2019-Feb-12 00:03N 20°00' E 068°00'23 3.8 310 / 61012.5 23.9
2019-Feb-11 18:03N 20°00' E 067°36'23 7.5 310 / 191014.9 23.5
2019-Feb-11 15:03N 20°00' E 067°12'11 3.8 320 / 191014.6 23.8
2019-Feb-11 12:03N 20°00' E 067°00'0 0.0 320 / 191012.8 24.5
2019-Feb-11 09:03N 20°00' E 067°00'0 0.0 080 / 121013.9 24.4
2019-Feb-11 06:03N 20°00' E 067°00'0 0.0 100 / 141016.6 24.1
2019-Feb-11 02:33N 20°00' E 067°00'0 0.0 1016.1 23.2
2019-Feb-10 21:03N 20°00' E 067°00'17 5.6 260 / 161014.9 22.6
2019-Feb-10 18:03N 20°00' E 066°42'28 9.4 300 / 231016.0 22.6
2019-Feb-10 15:03N 20°00' E 066°12'11 3.8 310 / 191015.8 23.0
2019-Feb-10 12:03N 20°00' E 066°00'0 0.0 320 / 141014.4 23.5
2019-Feb-10 09:03N 20°00' E 066°00'6 1.9 080 / 101015.5 23.3
2019-Feb-10 06:03N 20°00' E 065°54'6 1.9 090 / 121018.5 23.0
2019-Feb-10 03:03N 20°00' E 066°00'   100 / 121017.2 22.2

Dump ship's entire track history